createdAt,value
2018-09-11T00:01:46.272Z,100133.45
2018-09-11T00:04:14.922Z,100131.45
2018-09-11T00:06:43.526Z,100126.77
2018-09-11T00:09:13.589Z,100129.09
2018-09-11T00:11:43.062Z,100131.70
2018-09-11T00:14:11.742Z,100127.75
2018-09-11T00:16:40.355Z,100127.21
2018-09-11T00:19:08.968Z,100128.27
2018-09-11T00:21:37.573Z,100129.22
2018-09-11T00:24:06.291Z,100130.00
2018-09-11T00:26:34.877Z,100133.91
2018-09-11T00:29:03.483Z,100128.94
2018-09-11T00:31:32.105Z,100142.33
2018-09-11T00:34:00.684Z,100138.20
2018-09-11T00:36:29.282Z,100136.23
2018-09-11T00:38:57.919Z,100139.84
2018-09-11T00:41:26.546Z,100141.63
2018-09-11T00:43:55.213Z,100146.14
2018-09-11T00:46:23.941Z,100138.12
2018-09-11T00:48:52.582Z,100138.87
2018-09-11T00:51:21.212Z,100145.87
2018-09-11T00:53:49.833Z,100144.44
2018-09-11T00:56:18.454Z,100152.89
2018-09-11T00:58:47.053Z,100151.53
2018-09-11T01:01:15.633Z,100147.50
2018-09-11T01:03:44.267Z,100148.42
2018-09-11T01:06:13.482Z,100143.42
2018-09-11T01:08:42.148Z,100150.34
2018-09-11T01:11:10.935Z,100143.23
2018-09-11T01:13:39.569Z,100148.38
2018-09-11T01:16:09.501Z,100157.19
2018-09-11T01:18:38.152Z,100148.84
2018-09-11T01:21:06.802Z,100151.29
2018-09-11T01:23:35.638Z,100145.38
2018-09-11T01:26:04.265Z,100149.10
2018-09-11T01:28:32.873Z,100145.53
2018-09-11T01:31:01.571Z,100149.58
2018-09-11T01:33:30.202Z,100155.89
2018-09-11T01:35:58.850Z,100155.44
2018-09-11T01:38:27.605Z,100154.44
2018-09-11T01:40:56.222Z,100146.38
2018-09-11T01:43:24.915Z,100154.00
2018-09-11T01:45:53.530Z,100151.55
2018-09-11T01:48:22.153Z,100160.28
2018-09-11T01:50:50.743Z,100154.83
2018-09-11T01:53:19.382Z,100157.69
2018-09-11T01:55:48.037Z,100152.08
2018-09-11T01:58:16.618Z,100155.07
2018-09-11T02:00:45.209Z,100151.52
2018-09-11T02:03:13.853Z,100153.45
2018-09-11T02:05:42.441Z,100149.45
2018-09-11T02:08:11.055Z,100149.56
2018-09-11T02:10:39.638Z,100146.23
2018-09-11T02:13:08.214Z,100149.77
2018-09-11T02:15:36.882Z,100153.89
2018-09-11T02:18:05.516Z,100153.31
2018-09-11T02:20:34.201Z,100152.87
2018-09-11T02:23:02.813Z,100148.17
2018-09-11T02:25:31.453Z,100159.28
2018-09-11T02:28:00.061Z,100155.34
2018-09-11T02:30:28.652Z,100160.98
2018-09-11T02:32:57.244Z,100160.72
2018-09-11T02:35:25.834Z,100165.33
2018-09-11T02:37:54.467Z,100158.85
2018-09-11T02:40:23.057Z,100158.25
2018-09-11T02:42:51.666Z,100159.32
2018-09-11T02:45:22.996Z,100163.48
2018-09-11T02:47:53.488Z,100164.62
2018-09-11T02:50:22.097Z,100160.44
2018-09-11T02:52:50.896Z,100163.56
2018-09-11T02:55:19.582Z,100154.59
2018-09-11T02:57:48.256Z,100153.61
2018-09-11T03:00:16.882Z,100156.14
2018-09-11T03:02:45.529Z,100155.44
2018-09-11T03:05:14.155Z,100160.03
2018-09-11T03:07:42.716Z,100159.75
2018-09-11T03:10:11.331Z,100160.29
2018-09-11T03:12:39.898Z,100160.26
2018-09-11T03:15:08.529Z,100155.27
2018-09-11T03:17:37.236Z,100152.74
2018-09-11T03:20:05.954Z,100152.05
2018-09-11T03:22:34.557Z,100148.78
2018-09-11T03:25:03.151Z,100145.67
2018-09-11T03:27:31.773Z,100147.93
2018-09-11T03:30:00.360Z,100150.67
2018-09-11T03:32:28.973Z,100151.91
2018-09-11T03:34:57.620Z,100152.81
2018-09-11T03:37:26.195Z,100154.38
2018-09-11T03:39:55.844Z,100158.03
2018-09-11T03:42:24.455Z,100157.91
2018-09-11T03:44:53.158Z,100159.66
2018-09-11T03:47:21.761Z,100170.87
2018-09-11T03:49:50.378Z,100158.36
2018-09-11T03:52:19.025Z,100161.75
2018-09-11T03:54:47.647Z,100160.75
2018-09-11T03:57:16.235Z,100163.12
2018-09-11T03:59:44.838Z,100165.72
2018-09-11T04:02:13.480Z,100166.95
2018-09-11T04:04:42.083Z,100176.13
2018-09-11T04:07:10.765Z,100164.96
2018-09-11T04:09:39.358Z,100175.02
2018-09-11T04:12:07.977Z,100176.86
2018-09-11T04:17:10.567Z,100188.12
2018-09-11T04:19:39.249Z,100181.80
2018-09-11T04:22:07.885Z,100178.27
2018-09-11T04:24:36.731Z,100178.11
2018-09-11T04:27:05.333Z,100180.48
2018-09-11T04:29:33.995Z,100178.36
2018-09-11T04:32:02.605Z,100174.37
2018-09-11T04:34:31.240Z,100177.57
2018-09-11T04:36:59.846Z,100180.03
2018-09-11T04:39:28.418Z,100170.70
2018-09-11T04:41:57.041Z,100177.42
2018-09-11T04:44:25.778Z,100175.33
2018-09-11T04:46:54.390Z,100173.52
2018-09-11T04:49:23.101Z,100178.72
2018-09-11T04:51:51.702Z,100178.63
2018-09-11T04:54:20.310Z,100186.53
2018-09-11T04:56:48.914Z,100184.59
2018-09-11T04:59:18.174Z,100185.14
2018-09-11T05:01:46.850Z,100183.14
2018-09-11T05:04:15.478Z,100184.94
2018-09-11T05:06:44.161Z,100187.53
2018-09-11T05:09:12.927Z,100183.78
2018-09-11T05:11:41.643Z,100187.74
2018-09-11T05:14:10.257Z,100186.68
2018-09-11T05:16:38.891Z,100189.65
2018-09-11T05:19:07.518Z,100191.89
2018-09-11T05:21:36.084Z,100194.55
2018-09-11T05:24:04.740Z,100190.17
2018-09-11T05:26:33.331Z,100193.23
2018-09-11T05:29:01.916Z,100190.57
2018-09-11T05:31:30.518Z,100189.11
2018-09-11T05:33:59.101Z,100192.05
2018-09-11T05:36:27.720Z,100184.92
2018-09-11T05:38:56.428Z,100189.98
2018-09-11T05:41:24.970Z,100187.89
2018-09-11T05:43:53.589Z,100182.97
2018-09-11T05:46:22.224Z,100189.92
2018-09-11T05:48:50.823Z,100196.67
2018-09-11T05:51:19.531Z,100194.48
2018-09-11T05:53:48.179Z,100190.80
2018-09-11T05:56:19.589Z,100189.10
2018-09-11T05:58:48.285Z,100191.96
2018-09-11T06:01:16.896Z,100195.67
2018-09-11T06:03:45.616Z,100194.98
2018-09-11T06:06:14.256Z,100192.67
2018-09-11T06:08:42.890Z,100192.27
2018-09-11T06:11:11.510Z,100195.00
2018-09-11T06:13:40.130Z,100199.08
2018-09-11T06:16:08.829Z,100191.42
2018-09-11T06:18:37.391Z,100201.30
2018-09-11T06:21:06.001Z,100203.16
2018-09-11T06:23:34.584Z,100210.59
2018-09-11T06:26:03.172Z,100209.28
2018-09-11T06:28:32.110Z,100209.34
2018-09-11T06:31:00.737Z,100211.27
2018-09-11T06:33:29.338Z,100215.27
2018-09-11T06:35:58.027Z,100217.42
2018-09-11T06:38:26.644Z,100216.89
2018-09-11T06:40:55.339Z,100212.17
2018-09-11T06:43:30.486Z,100212.45
2018-09-11T06:45:59.311Z,100210.41
2018-09-11T06:48:27.902Z,100215.39
2018-09-11T06:50:56.541Z,100209.55
2018-09-11T06:53:25.189Z,100206.59
2018-09-11T06:55:53.895Z,100212.38
2018-09-11T06:58:22.565Z,100228.14
2018-09-11T07:00:51.801Z,100228.54
2018-09-11T07:03:20.442Z,100221.00
2018-09-11T07:05:49.128Z,100223.89
2018-09-11T07:08:17.829Z,100223.67
2018-09-11T07:10:46.878Z,100239.20
2018-09-11T07:13:15.533Z,100228.67
2018-09-11T07:15:44.158Z,100226.59
2018-09-11T07:18:12.899Z,100226.19
2018-09-11T07:20:41.992Z,100231.05
2018-09-11T07:23:11.027Z,100230.59
2018-09-11T07:25:39.673Z,100229.47
2018-09-11T07:28:08.411Z,100232.83
2018-09-11T07:30:37.147Z,100229.70
2018-09-11T07:33:05.944Z,100232.48
2018-09-11T07:35:34.649Z,100226.31
2018-09-11T07:38:04.329Z,100243.67
2018-09-11T07:40:33.028Z,100244.06
2018-09-11T07:43:01.744Z,100243.72
2018-09-11T07:45:31.085Z,100248.11
2018-09-11T07:47:59.844Z,100237.82
2018-09-11T07:50:28.609Z,100236.73
2018-09-11T07:52:58.090Z,100241.64
2018-09-11T07:55:26.755Z,100239.41
2018-09-11T07:57:55.683Z,100251.80
2018-09-11T08:00:24.346Z,100244.98
2018-09-11T08:02:53.077Z,100242.31
2018-09-11T08:05:21.781Z,100257.89
2018-09-11T08:07:50.425Z,100265.36
2018-09-11T08:10:19.121Z,100259.86
2018-09-11T08:12:48.041Z,100251.63
2018-09-11T08:15:16.728Z,100250.64
2018-09-11T08:17:45.974Z,100266.07
2018-09-11T08:20:14.728Z,100246.59
2018-09-11T08:22:43.402Z,100242.56
2018-09-11T08:25:12.090Z,100250.42
2018-09-11T08:27:40.741Z,100251.92
2018-09-11T08:30:09.455Z,100253.77
2018-09-11T08:32:38.103Z,100265.31
2018-09-11T08:35:06.796Z,100256.13
2018-09-11T08:37:35.466Z,100256.67
2018-09-11T08:40:04.258Z,100268.14
2018-09-11T08:42:32.930Z,100264.64
2018-09-11T08:45:01.659Z,100260.05
2018-09-11T08:47:30.330Z,100271.37
2018-09-11T08:49:58.980Z,100270.41
2018-09-11T08:52:27.690Z,100263.06
2018-09-11T08:54:56.474Z,100266.35
2018-09-11T08:57:25.155Z,100262.27
2018-09-11T08:59:53.918Z,100266.39
2018-09-11T09:02:22.638Z,100262.71
2018-09-11T09:04:51.270Z,100264.73
2018-09-11T09:07:19.966Z,100263.75
2018-09-11T09:09:48.591Z,100269.73
2018-09-11T09:12:17.237Z,100264.77
2018-09-11T09:14:50.946Z,100272.13
2018-09-11T09:17:22.091Z,100289.95
2018-09-11T09:19:50.783Z,100263.52
2018-09-11T09:22:19.772Z,100251.51
2018-09-11T09:24:50.604Z,100266.44
2018-09-11T09:27:19.414Z,100259.74
2018-09-11T09:29:48.074Z,100254.45
2018-09-11T09:32:16.750Z,100265.13
2018-09-11T09:34:45.611Z,100267.87
2018-09-11T09:37:14.455Z,100261.83
2018-09-11T09:39:43.145Z,100261.87
2018-09-11T09:42:12.535Z,100262.64
2018-09-11T09:44:41.197Z,100270.80
2018-09-11T09:47:09.942Z,100264.84
2018-09-11T09:49:38.634Z,100266.02
2018-09-11T09:52:07.461Z,100267.29
2018-09-11T09:54:36.279Z,100259.58
2018-09-11T09:57:04.964Z,100260.77
2018-09-11T09:59:33.664Z,100258.19
2018-09-11T10:02:05.034Z,100260.26
2018-09-11T10:04:34.276Z,100267.80
2018-09-11T10:07:03.006Z,100254.17
2018-09-11T10:09:31.830Z,100264.13
2018-09-11T10:12:00.543Z,100256.55
2018-09-11T10:14:29.198Z,100285.36
2018-09-11T10:16:57.860Z,100255.80
2018-09-11T10:19:26.561Z,100253.92
2018-09-11T10:21:55.247Z,100260.05
2018-09-11T10:24:23.950Z,100265.91
2018-09-11T10:26:52.678Z,100260.11
2018-09-11T10:29:21.423Z,100257.16
2018-09-11T10:31:50.121Z,100258.53
2018-09-11T10:34:18.896Z,100244.61
2018-09-11T10:36:47.655Z,100258.47
2018-09-11T10:39:16.437Z,100243.30
2018-09-11T10:41:45.184Z,100249.34
2018-09-11T10:44:13.958Z,100264.90
2018-09-11T10:46:42.643Z,100246.62
2018-09-11T10:49:11.363Z,100238.88
2018-09-11T10:51:40.120Z,100226.27
2018-09-11T10:54:08.889Z,100234.38
2018-09-11T10:56:37.606Z,100238.26
2018-09-11T10:59:06.416Z,100242.36
2018-09-11T11:01:35.169Z,100234.63
2018-09-11T11:04:03.982Z,100225.42
2018-09-11T11:09:09.180Z,100225.23
2018-09-11T11:11:38.032Z,100226.41
2018-09-11T11:14:07.262Z,100210.32
2018-09-11T11:16:35.951Z,100212.64
2018-09-11T11:19:04.689Z,100207.16
2018-09-11T11:21:33.351Z,100211.00
2018-09-11T11:24:02.118Z,100197.17
2018-09-11T11:26:30.797Z,100206.39
2018-09-11T11:28:59.537Z,100199.75
2018-09-11T11:31:28.239Z,100200.28
2018-09-11T11:33:57.053Z,100194.19
2018-09-11T11:36:26.079Z,100201.45
2018-09-11T11:38:54.553Z,100201.62
2018-09-11T11:41:23.283Z,100187.96
2018-09-11T11:43:51.975Z,100191.45
2018-09-11T11:46:20.764Z,100194.77
2018-09-11T11:48:49.479Z,100182.43
2018-09-11T11:51:18.281Z,100181.81
2018-09-11T11:53:46.981Z,100175.20
2018-09-11T11:56:15.874Z,100180.42
2018-09-11T11:58:45.289Z,100177.19
2018-09-11T12:01:14.115Z,100172.64
2018-09-11T12:03:42.827Z,100177.47
2018-09-11T12:06:12.241Z,100168.68
2018-09-11T12:08:40.902Z,100164.19
2018-09-11T12:11:09.608Z,100159.41
2018-09-11T12:13:38.335Z,100156.17
2018-09-11T12:16:07.200Z,100150.05
2018-09-11T12:18:35.886Z,100158.09
2018-09-11T12:21:04.650Z,100154.98
2018-09-11T12:23:33.442Z,100146.48
2018-09-11T12:26:02.267Z,100151.61
2018-09-11T12:28:31.093Z,100152.99
2018-09-11T12:30:59.815Z,100163.85
2018-09-11T12:33:28.516Z,100158.73
2018-09-11T12:35:57.214Z,100161.45
2018-09-11T12:38:25.866Z,100152.03
2018-09-11T12:40:55.294Z,100146.72
2018-09-11T12:43:24.108Z,100137.87
2018-09-11T12:45:52.906Z,100130.64
2018-09-11T12:48:21.938Z,100137.17
2018-09-11T12:50:50.311Z,100138.13
2018-09-11T12:53:18.990Z,100144.81
2018-09-11T12:55:47.735Z,100129.69
2018-09-11T12:58:16.441Z,100135.30
2018-09-11T13:00:45.122Z,100151.52
2018-09-11T13:03:13.811Z,100130.09
2018-09-11T13:05:42.525Z,100126.20
2018-09-11T13:08:11.260Z,100122.84
2018-09-11T13:10:39.931Z,100125.57
2018-09-11T13:13:08.757Z,100131.14
2018-09-11T13:15:37.510Z,100119.55
2018-09-11T13:18:06.374Z,100115.59
2018-09-11T13:20:35.373Z,100121.52
2018-09-11T13:23:04.630Z,100125.13
2018-09-11T13:25:33.387Z,100120.19
2018-09-11T13:28:02.085Z,100129.70
2018-09-11T13:30:30.805Z,100123.14
2018-09-11T13:32:59.533Z,100114.29
2018-09-11T13:35:28.275Z,100108.70
2018-09-11T13:37:56.988Z,100108.64
2018-09-11T13:40:25.717Z,100120.73
2018-09-11T13:42:54.387Z,100106.27
2018-09-11T13:45:23.134Z,100102.64
2018-09-11T13:47:51.842Z,100108.08
2018-09-11T13:50:20.555Z,100104.98
2018-09-11T13:52:49.287Z,100135.87
2018-09-11T13:55:18.028Z,100102.58
2018-09-11T13:57:46.734Z,100120.89
2018-09-11T14:00:15.494Z,100110.05
2018-09-11T14:02:44.263Z,100112.82
2018-09-11T14:05:12.896Z,100117.14
2018-09-11T14:07:41.690Z,100113.88
2018-09-11T14:10:10.449Z,100102.78
2018-09-11T14:12:39.182Z,100111.95
2018-09-11T14:15:08.278Z,100112.66
2018-09-11T14:17:36.987Z,100102.98
2018-09-11T14:20:06.162Z,100100.70
2018-09-11T14:22:34.954Z,100104.78
2018-09-11T14:25:03.774Z,100119.20
2018-09-11T14:27:32.596Z,100104.39
2018-09-11T14:30:01.256Z,100102.85
2018-09-11T14:32:30.037Z,100109.61
2018-09-11T14:35:05.324Z,100120.24
2018-09-11T14:37:34.086Z,100109.48
2018-09-11T14:40:02.798Z,100107.11
2018-09-11T14:42:31.500Z,100113.62
2018-09-11T14:45:00.199Z,100108.41
2018-09-11T14:47:33.943Z,100109.31
2018-09-11T14:50:02.667Z,100104.90
2018-09-11T14:52:31.395Z,100111.16
2018-09-11T14:55:00.089Z,100117.23
2018-09-11T14:57:28.945Z,100106.38
2018-09-11T14:59:57.659Z,100107.56
2018-09-11T15:02:26.423Z,100101.46
2018-09-11T15:04:55.575Z,100102.68
2018-09-11T15:07:24.616Z,100118.20
2018-09-11T15:09:53.303Z,100110.06
2018-09-11T15:12:22.079Z,100097.52
2018-09-11T15:14:50.819Z,100101.34
2018-09-11T15:17:19.534Z,100106.26
2018-09-11T15:19:48.363Z,100103.25
2018-09-11T15:22:17.159Z,100104.83
2018-09-11T15:24:45.810Z,100099.07
2018-09-11T15:27:14.515Z,100104.45
2018-09-11T15:29:43.241Z,100103.84
2018-09-11T15:32:11.988Z,100101.72
2018-09-11T15:34:40.666Z,100101.59
2018-09-11T15:37:09.409Z,100106.86
2018-09-11T15:39:38.240Z,100102.88
2018-09-11T15:42:07.035Z,100108.52
2018-09-11T15:44:35.770Z,100106.62
2018-09-11T15:47:04.501Z,100099.30
2018-09-11T15:49:33.153Z,100096.91
2018-09-11T15:52:01.830Z,100100.95
2018-09-11T15:54:37.302Z,100109.71
2018-09-11T15:57:06.017Z,100100.06
2018-09-11T15:59:34.698Z,100100.00
2018-09-11T16:02:03.478Z,100096.70
2018-09-11T16:04:32.204Z,100103.27
2018-09-11T16:07:00.936Z,100099.78
2018-09-11T16:09:29.692Z,100096.81
2018-09-11T16:11:58.388Z,100094.89
2018-09-11T16:14:27.117Z,100103.73
2018-09-11T16:16:55.834Z,100105.88
2018-09-11T16:19:24.561Z,100110.67
2018-09-11T16:21:53.582Z,100101.70
2018-09-11T16:24:22.284Z,100106.45
2018-09-11T16:26:51.003Z,100104.75
2018-09-11T16:29:19.730Z,100102.36
2018-09-11T16:31:48.432Z,100089.87
2018-09-11T16:34:17.159Z,100094.89
2018-09-11T16:36:45.873Z,100097.52
2018-09-11T16:39:14.565Z,100086.22
2018-09-11T16:41:43.315Z,100089.41
2018-09-11T16:44:11.995Z,100085.99
2018-09-11T16:46:40.752Z,100086.97
2018-09-11T16:49:09.770Z,100086.41
2018-09-11T16:51:38.886Z,100085.70
2018-09-11T16:54:07.929Z,100085.17
2018-09-11T16:56:36.652Z,100086.01
2018-09-11T16:59:05.379Z,100084.91
2018-09-11T17:01:34.064Z,100087.77
2018-09-11T17:04:02.771Z,100086.88
2018-09-11T17:06:31.475Z,100083.08
2018-09-11T17:09:00.217Z,100092.87
2018-09-11T17:11:28.931Z,100090.25
2018-09-11T17:13:57.639Z,100095.27
2018-09-11T17:16:26.398Z,100091.09
2018-09-11T17:18:55.077Z,100094.59
2018-09-11T17:21:23.766Z,100093.86
2018-09-11T17:23:52.448Z,100098.66
2018-09-11T17:26:21.134Z,100099.19
2018-09-11T17:28:49.951Z,100100.11
2018-09-11T17:31:18.622Z,100108.75
2018-09-11T17:33:48.290Z,100103.59
2018-09-11T17:36:16.969Z,100104.16
2018-09-11T17:38:45.620Z,100112.10
2018-09-11T17:41:14.310Z,100107.12
2018-09-11T17:43:42.989Z,100110.67
2018-09-11T17:46:11.685Z,100110.61
2018-09-11T17:48:40.455Z,100112.22
2018-09-11T17:51:09.170Z,100118.90
2018-09-11T17:53:37.810Z,100119.81
2018-09-11T17:56:06.672Z,100128.80
2018-09-11T17:58:35.422Z,100130.22
2018-09-11T18:01:04.157Z,100131.44
2018-09-11T18:03:32.801Z,100131.44
2018-09-11T18:06:01.481Z,100136.09
2018-09-11T18:08:30.323Z,100135.44
2018-09-11T18:10:58.958Z,100139.23
2018-09-11T18:13:27.622Z,100141.13
2018-09-11T18:15:56.337Z,100140.59
2018-09-11T18:18:25.022Z,100148.16
2018-09-11T18:20:53.781Z,100156.86
2018-09-11T18:23:22.575Z,100159.48
2018-09-11T18:25:51.414Z,100156.78
2018-09-11T18:28:20.059Z,100152.66
2018-09-11T18:30:48.787Z,100161.09
2018-09-11T18:33:17.464Z,100166.13
2018-09-11T18:35:46.193Z,100167.88
2018-09-11T18:38:14.839Z,100172.50
2018-09-11T18:40:43.759Z,100173.12
2018-09-11T18:43:12.397Z,100170.80
2018-09-11T18:45:41.058Z,100175.02
2018-09-11T18:48:09.764Z,100168.09
2018-09-11T18:50:38.433Z,100178.84
2018-09-11T18:53:07.129Z,100180.51
2018-09-11T18:55:35.792Z,100175.48
2018-09-11T18:58:04.526Z,100178.00
2018-09-11T19:00:33.220Z,100179.59
2018-09-11T19:03:02.848Z,100181.62
2018-09-11T19:05:31.805Z,100187.05
2018-09-11T19:08:01.118Z,100176.86
2018-09-11T19:10:30.216Z,100179.20
2018-09-11T19:12:58.946Z,100180.03
2018-09-11T19:15:28.068Z,100174.91
2018-09-11T19:17:57.368Z,100172.83
2018-09-11T19:20:26.152Z,100177.69
2018-09-11T19:22:54.978Z,100177.42
2018-09-11T19:25:23.717Z,100173.74
2018-09-11T19:27:52.493Z,100176.11
2018-09-11T19:30:21.200Z,100180.28
2018-09-11T19:32:49.975Z,100180.88
2018-09-11T19:35:19.584Z,100179.08
2018-09-11T19:37:48.269Z,100183.00
2018-09-11T19:40:16.984Z,100183.03
2018-09-11T19:42:45.768Z,100183.59
2018-09-11T19:45:14.494Z,100182.83
2018-09-11T19:47:43.218Z,100183.38
2018-09-11T19:50:12.088Z,100190.88
2018-09-11T19:52:40.804Z,100187.13
2018-09-11T19:55:09.514Z,100188.39
2018-09-11T19:57:38.345Z,100184.48
2018-09-11T20:00:07.679Z,100194.22
2018-09-11T20:02:36.468Z,100195.42
2018-09-11T20:05:05.302Z,100191.05
2018-09-11T20:07:34.070Z,100194.58
2018-09-11T20:10:02.822Z,100195.78
2018-09-11T20:12:31.568Z,100191.01
2018-09-11T20:15:00.715Z,100197.48
2018-09-11T20:17:29.431Z,100194.09
2018-09-11T20:19:58.083Z,100192.16
2018-09-11T20:22:26.789Z,100197.78
2018-09-11T20:24:55.756Z,100196.92
2018-09-11T20:27:24.965Z,100195.22
2018-09-11T20:29:53.921Z,100198.01
2018-09-11T20:32:23.245Z,100195.56
2018-09-11T20:34:51.947Z,100198.80
2018-09-11T20:37:20.589Z,100198.58
2018-09-11T20:39:49.265Z,100200.61
2018-09-11T20:42:17.903Z,100204.03
2018-09-11T20:44:46.608Z,100209.52
2018-09-11T20:47:15.267Z,100210.37
2018-09-11T20:49:43.906Z,100206.70
2018-09-11T20:52:12.578Z,100220.47
2018-09-11T20:54:41.231Z,100219.05
2018-09-11T20:57:09.989Z,100218.30
2018-09-11T20:59:38.723Z,100219.16
2018-09-11T21:02:07.347Z,100224.31
2018-09-11T21:04:36.015Z,100222.95
2018-09-11T21:07:04.769Z,100231.66
2018-09-11T21:09:33.474Z,100231.97
2018-09-11T21:12:02.136Z,100234.33
2018-09-11T21:14:30.835Z,100234.69
2018-09-11T21:16:59.553Z,100237.72
2018-09-11T21:19:28.408Z,100243.25
2018-09-11T21:21:57.110Z,100244.89
2018-09-11T21:24:25.785Z,100246.02
2018-09-11T21:26:54.470Z,100239.93
2018-09-11T21:29:23.101Z,100243.98
2018-09-11T21:31:51.732Z,100250.57
2018-09-11T21:34:20.366Z,100252.81
2018-09-11T21:36:49.098Z,100251.48
2018-09-11T21:39:17.737Z,100247.63
2018-09-11T21:41:46.348Z,100246.56
2018-09-11T21:44:15.016Z,100255.34
2018-09-11T21:46:43.689Z,100256.90
2018-09-11T21:49:12.326Z,100263.06
2018-09-11T21:51:40.990Z,100267.01
2018-09-11T21:54:09.721Z,100268.32
2018-09-11T21:56:38.414Z,100279.12
2018-09-11T21:59:07.110Z,100273.61
2018-09-11T22:01:41.550Z,100271.45
2018-09-11T22:04:10.436Z,100273.08
2018-09-11T22:06:39.090Z,100271.99
2018-09-11T22:09:09.218Z,100276.92
2018-09-11T22:11:37.947Z,100272.49
2018-09-11T22:14:06.674Z,100269.16
